createdAt,value
2024-04-18T00:02:47.627Z,98102.53
2024-04-18T00:08:05.885Z,98102.82
2024-04-18T00:13:07.625Z,98103.18
2024-04-18T00:18:29.216Z,98109.77
2024-04-18T00:23:31.074Z,98108.88
2024-04-18T00:28:50.571Z,98111.41
2024-04-18T00:33:52.329Z,98111.84
2024-04-18T00:39:03.024Z,98109.10
2024-04-18T00:44:04.737Z,98106.66
2024-04-18T00:49:07.129Z,98109.52
2024-04-18T00:54:28.339Z,98108.69
2024-04-18T00:59:33.610Z,98105.04
2024-04-18T01:04:51.377Z,98111.88
2024-04-18T01:10:13.001Z,98112.89
2024-04-18T01:15:14.790Z,98110.90
2024-04-18T01:20:19.279Z,98114.67
2024-04-18T01:25:20.893Z,98118.70
2024-04-18T01:30:22.562Z,98116.98
2024-04-18T01:35:24.246Z,98119.40
2024-04-18T01:40:26.032Z,98117.38
2024-04-18T01:45:46.375Z,98119.08
2024-04-18T01:50:48.076Z,98121.14
2024-04-18T01:56:07.167Z,98128.92
2024-04-18T02:01:25.460Z,98130.10
2024-04-18T02:06:27.265Z,98131.91
2024-04-18T02:11:29.232Z,98133.85
2024-04-18T02:16:46.071Z,98135.73
2024-04-18T02:22:00.153Z,98133.35
2024-04-18T02:27:07.837Z,98135.21
2024-04-18T02:32:09.483Z,98134.23
2024-04-18T02:37:11.334Z,98133.69
2024-04-18T02:42:13.102Z,98134.65
2024-04-18T02:47:35.256Z,98142.86
2024-04-18T02:52:39.887Z,98139.88
2024-04-18T02:57:49.609Z,98147.19
2024-04-18T03:02:51.410Z,98144.54
2024-04-18T03:07:58.469Z,98144.43
2024-04-18T03:13:18.401Z,98139.83
2024-04-18T03:18:26.339Z,98140.70
2024-04-18T03:23:40.420Z,98135.63
2024-04-18T03:28:42.079Z,98142.90
2024-04-18T03:33:43.932Z,98141.80
2024-04-18T03:38:45.574Z,98142.42
2024-04-18T03:43:47.348Z,98148.21
2024-04-18T03:48:49.016Z,98158.52
2024-04-18T03:53:50.734Z,98160.74
2024-04-18T03:58:53.662Z,98161.36
2024-04-18T04:03:55.659Z,98166.67
2024-04-18T04:09:14.018Z,98174.13
2024-04-18T04:14:16.262Z,98176.35
2024-04-18T04:19:30.080Z,98177.02
2024-04-18T04:24:32.088Z,98181.41
2024-04-18T04:29:53.739Z,98185.54
2024-04-18T04:34:55.525Z,98188.21
2024-04-18T04:39:57.305Z,98190.88
2024-04-18T04:44:59.121Z,98197.98
2024-04-18T04:50:04.955Z,98196.45
2024-04-18T04:55:12.582Z,98202.35
2024-04-18T05:00:14.980Z,98201.73
2024-04-18T05:05:43.788Z,98198.42
2024-04-18T05:10:46.047Z,98203.55
2024-04-18T05:15:47.947Z,98205.45
2024-04-18T05:21:05.011Z,98206.26
2024-04-18T05:26:33.647Z,98219.95
2024-04-18T05:31:36.989Z,98230.25
2024-04-18T05:36:40.769Z,98231.34
2024-04-18T05:41:42.550Z,98238.11
2024-04-18T05:47:04.568Z,98237.36
2024-04-18T05:52:06.412Z,98241.02
2024-04-18T05:57:08.574Z,98242.66
2024-04-18T06:02:25.556Z,98249.89
2024-04-18T06:07:27.367Z,98252.38
2024-04-18T06:12:29.138Z,98245.06
2024-04-18T06:17:30.980Z,98239.27
2024-04-18T06:22:33.015Z,98236.05
2024-04-18T06:27:53.153Z,98234.15
2024-04-18T06:32:55.003Z,98233.88
2024-04-18T06:37:57.107Z,98240.38
2024-04-18T06:42:59.123Z,98246.30
2024-04-18T06:48:01.075Z,98255.48
2024-04-18T06:53:03.066Z,98258.02
2024-04-18T06:58:05.306Z,98260.41
2024-04-18T07:03:13.284Z,98269.45
2024-04-18T07:08:27.257Z,98274.64
2024-04-18T07:13:33.845Z,98276.40
2024-04-18T07:18:56.662Z,98275.36
2024-04-18T07:24:01.634Z,98275.21
2024-04-18T07:29:16.190Z,98277.67
2024-04-18T07:34:18.119Z,98281.48
2024-04-18T07:39:20.767Z,98282.65
2024-04-18T07:44:24.880Z,98283.35
2024-04-18T07:49:27.044Z,98289.27
2024-04-18T07:54:28.929Z,98282.86
2024-04-18T07:59:31.046Z,98289.65
2024-04-18T08:04:51.857Z,98288.70
2024-04-18T08:09:59.979Z,98287.42
2024-04-18T08:15:11.350Z,98294.25
2024-04-18T08:20:16.400Z,98298.14
2024-04-18T08:25:18.138Z,98293.05
2024-04-18T08:30:20.578Z,98293.50
2024-04-18T08:35:22.532Z,98286.97
2024-04-18T08:40:29.485Z,98286.33
2024-04-18T08:45:35.473Z,98284.56
2024-04-18T08:50:41.930Z,98282.38
2024-04-18T08:55:50.218Z,98285.20
2024-04-18T09:00:52.687Z,98285.92
2024-04-18T09:05:54.595Z,98285.30
2024-04-18T09:10:59.674Z,98292.02
2024-04-18T09:16:01.617Z,98293.21
2024-04-18T09:21:03.475Z,98290.09
2024-04-18T09:26:05.180Z,98287.48
2024-04-18T09:31:07.511Z,98284.14
2024-04-18T09:36:09.924Z,98282.96
2024-04-18T09:41:24.610Z,98286.48
2024-04-18T09:46:29.615Z,98286.37
2024-04-18T09:51:31.530Z,98280.05
2024-04-18T09:56:35.316Z,98276.56
2024-04-18T10:01:38.531Z,98279.91
2024-04-18T10:06:44.609Z,98277.17
2024-04-18T10:11:46.738Z,98272.88
2024-04-18T10:16:49.895Z,98268.77
2024-04-18T10:27:08.812Z,98277.12
2024-04-18T10:32:10.552Z,98272.52
2024-04-18T10:37:12.523Z,98275.96
2024-04-18T10:42:16.066Z,98269.98
2024-04-18T10:47:22.439Z,98266.13
2024-04-18T10:52:25.357Z,98272.89
2024-04-18T10:57:27.306Z,98277.50
2024-04-18T11:02:30.119Z,98284.15
2024-04-18T11:07:33.423Z,98295.70
2024-04-18T11:12:35.802Z,98308.71
2024-04-18T11:17:37.801Z,98324.54
2024-04-18T11:22:40.502Z,98326.25
2024-04-18T11:27:42.314Z,98320.00
2024-04-18T11:32:44.347Z,98314.80
2024-04-18T11:37:46.561Z,98312.57
2024-04-18T11:42:48.224Z,98313.62
2024-04-18T11:47:57.109Z,98313.16
2024-04-18T11:52:59.045Z,98308.81
2024-04-18T11:58:06.877Z,98306.92
2024-04-18T12:03:11.575Z,98305.62
2024-04-18T12:08:27.548Z,98302.98
2024-04-18T12:13:29.360Z,98300.73
2024-04-18T12:18:31.390Z,98305.58
2024-04-18T12:23:43.904Z,98311.08
2024-04-18T12:28:46.741Z,98329.84
2024-04-18T12:33:48.575Z,98338.63
2024-04-18T12:38:50.612Z,98354.16
2024-04-18T12:43:52.368Z,98361.92
2024-04-18T12:49:12.919Z,98370.92
2024-04-18T12:54:14.895Z,98381.19
2024-04-18T12:59:22.948Z,98382.35
2024-04-18T13:04:25.016Z,98380.65
2024-04-18T13:09:27.041Z,98380.82
2024-04-18T13:14:34.304Z,98373.34
2024-04-18T13:19:36.072Z,98371.02
2024-04-18T13:24:47.307Z,98372.58
2024-04-18T13:30:02.529Z,98370.72
2024-04-18T13:35:08.565Z,98368.80
2024-04-18T13:40:11.089Z,98373.59
2024-04-18T13:45:33.970Z,98370.42
2024-04-18T13:50:36.084Z,98370.88
2024-04-18T13:55:37.880Z,98370.12
2024-04-18T14:00:39.770Z,98365.98
2024-04-18T14:06:00.687Z,98364.52
2024-04-18T14:11:11.420Z,98363.88
2024-04-18T14:16:52.108Z,98362.63
2024-04-18T14:22:07.444Z,98360.89
2024-04-18T14:27:09.564Z,98363.85
2024-04-18T14:32:31.245Z,98364.92
2024-04-18T14:37:39.178Z,98371.59
2024-04-18T14:42:41.499Z,98373.40
2024-04-18T14:47:43.500Z,98382.98
2024-04-18T14:52:45.293Z,98381.66
2024-04-18T14:58:05.502Z,98387.91
2024-04-18T15:03:23.132Z,98377.98
2024-04-18T15:08:25.470Z,98384.41
2024-04-18T15:13:27.586Z,98381.08
2024-04-18T15:18:29.559Z,98384.20
2024-04-18T15:23:51.232Z,98386.88
2024-04-18T15:29:00.579Z,98393.16
2024-04-18T15:34:22.497Z,98397.66
2024-04-18T15:39:30.129Z,98399.79
2024-04-18T15:44:38.765Z,98405.92
2024-04-18T15:50:00.346Z,98411.92
2024-04-18T15:55:12.393Z,98414.87
2024-04-18T16:00:21.304Z,98416.55
2024-04-18T16:05:24.363Z,98419.44
2024-04-18T16:10:41.638Z,98423.23
2024-04-18T16:16:03.627Z,98421.05
2024-04-18T16:21:12.025Z,98416.05
2024-04-18T16:26:14.182Z,98417.23
2024-04-18T16:31:16.109Z,98419.38
2024-04-18T16:36:27.889Z,98425.02
2024-04-18T16:41:42.978Z,98431.24
2024-04-18T16:46:44.839Z,98434.54
2024-04-18T16:51:49.562Z,98442.45
2024-04-18T16:56:58.542Z,98444.55
2024-04-18T17:02:19.561Z,98450.58
2024-04-18T17:07:21.236Z,98461.80
2024-04-18T17:12:55.373Z,98481.01
2024-04-18T17:18:23.398Z,98496.84
2024-04-18T17:23:31.725Z,98503.33
2024-04-18T17:28:33.343Z,98514.89
2024-04-18T17:33:38.096Z,98518.75
2024-04-18T17:38:40.917Z,98536.36
2024-04-18T17:44:02.908Z,98546.39
2024-04-18T17:49:25.216Z,98550.01
2024-04-18T17:54:27.148Z,98556.31
2024-04-18T17:59:29.194Z,98560.52
2024-04-18T18:04:30.925Z,98560.25
2024-04-18T18:09:32.727Z,98558.45
2024-04-18T18:14:34.539Z,98560.39
2024-04-18T18:19:36.512Z,98562.75
2024-04-18T18:24:40.386Z,98566.33
2024-04-18T18:29:43.607Z,98572.23
2024-04-18T18:34:46.795Z,98577.02
2024-04-18T18:39:49.397Z,98581.38
2024-04-18T18:44:51.276Z,98589.14
2024-04-18T18:49:53.075Z,98598.39
2024-04-18T18:54:55.879Z,98607.88
2024-04-18T18:59:57.852Z,98617.31
2024-04-18T19:04:59.678Z,98617.05
2024-04-18T19:10:01.436Z,98624.05
2024-04-18T19:15:03.642Z,98620.59
2024-04-18T19:20:06.582Z,98618.52
2024-04-18T19:25:08.516Z,98622.64
2024-04-18T19:30:10.681Z,98623.52
2024-04-18T19:35:14.809Z,98621.15
2024-04-18T19:40:17.152Z,98623.28
2024-04-18T19:45:37.924Z,98626.96
2024-04-18T19:50:40.513Z,98625.45
2024-04-18T19:56:00.471Z,98621.77
2024-04-18T20:01:05.378Z,98621.88
2024-04-18T20:06:09.477Z,98619.77
2024-04-18T20:11:27.177Z,98619.45
2024-04-18T20:16:28.910Z,98620.39
2024-04-18T20:21:45.828Z,98619.31
2024-04-18T20:26:47.594Z,98613.91
2024-04-18T20:31:49.318Z,98614.59
2024-04-18T20:36:51.368Z,98615.19
2024-04-18T20:41:54.263Z,98625.09
2024-04-18T20:46:55.980Z,98628.36
2024-04-18T20:51:57.834Z,98629.84
2024-04-18T20:57:19.552Z,98630.84
2024-04-18T21:02:23.412Z,98629.14
2024-04-18T21:07:31.045Z,98631.95
2024-04-18T21:12:33.327Z,98634.31
2024-04-18T21:17:35.143Z,98631.13
2024-04-18T21:22:36.917Z,98639.66
2024-04-18T21:27:38.807Z,98641.76
2024-04-18T21:32:40.651Z,98645.51
2024-04-18T21:37:42.455Z,98650.41
2024-04-18T21:42:44.283Z,98646.88
2024-04-18T21:47:46.166Z,98645.58
2024-04-18T21:52:48.194Z,98647.23
2024-04-18T21:57:49.934Z,98648.70
2024-04-18T22:02:51.960Z,98648.14
2024-04-18T22:07:53.649Z,98644.11
2024-04-18T22:12:56.182Z,98643.17
2024-04-18T22:17:58.016Z,98642.85
2024-04-18T22:22:59.910Z,98647.19
2024-04-18T22:28:01.898Z,98654.95
2024-04-18T22:33:03.843Z,98651.92
2024-04-18T22:38:05.671Z,98650.11
2024-04-18T22:43:07.355Z,98651.02
2024-04-18T22:48:09.790Z,98651.67
2024-04-18T22:53:12.086Z,98648.71
2024-04-18T22:58:13.912Z,98644.27
2024-04-18T23:03:35.668Z,98639.99
2024-04-18T23:08:50.246Z,98639.84
2024-04-18T23:13:51.896Z,98636.86
2024-04-18T23:18:53.668Z,98641.73
2024-04-18T23:23:55.705Z,98638.73
2024-04-18T23:28:57.460Z,98637.36
2024-04-18T23:33:59.446Z,98637.13
2024-04-18T23:39:01.463Z,98633.64
2024-04-18T23:44:08.046Z,98629.91
2024-04-18T23:49:09.905Z,98623.30
2024-04-18T23:54:11.950Z,98620.32
2024-04-18T23:59:13.809Z,98619.55
